sensor_id;sensor_type;location;lat;lon;timestamp;P1;durP1;ratioP1;P2;durP2;ratioP2
3022;SDS011;1521;53.584;9.938;2022-12-29T00:01:44;7.50;;;5.30;;
3022;SDS011;1521;53.584;9.938;2022-12-29T00:04:11;6.47;;;4.90;;
3022;SDS011;1521;53.584;9.938;2022-12-29T00:06:39;6.97;;;5.47;;
3022;SDS011;1521;53.584;9.938;2022-12-29T00:09:04;7.00;;;5.37;;
3022;SDS011;1521;53.584;9.938;2022-12-29T00:11:30;5.40;;;4.90;;
3022;SDS011;1521;53.584;9.938;2022-12-29T00:13:55;5.10;;;4.70;;
3022;SDS011;1521;53.584;9.938;2022-12-29T00:16:43;6.13;;;5.63;;
3022;SDS011;1521;53.584;9.938;2022-12-29T00:19:10;5.83;;;5.33;;
3022;SDS011;1521;53.584;9.938;2022-12-29T00:21:56;6.43;;;5.30;;
3022;SDS011;1521;53.584;9.938;2022-12-29T00:24:41;6.60;;;5.70;;
3022;SDS011;1521;53.584;9.938;2022-12-29T00:27:27;8.13;;;5.53;;
3022;SDS011;1521;53.584;9.938;2022-12-29T00:30:13;7.03;;;6.03;;
3022;SDS011;1521;53.584;9.938;2022-12-29T00:33:18;7.73;;;5.90;;
3022;SDS011;1521;53.584;9.938;2022-12-29T00:36:04;6.10;;;5.60;;
3022;SDS011;1521;53.584;9.938;2022-12-29T00:38:33;6.07;;;5.57;;
3022;SDS011;1521;53.584;9.938;2022-12-29T00:41:20;6.70;;;5.93;;
3022;SDS011;1521;53.584;9.938;2022-12-29T00:44:04;6.70;;;6.07;;
3022;SDS011;1521;53.584;9.938;2022-12-29T00:46:30;6.77;;;6.10;;
3022;SDS011;1521;53.584;9.938;2022-12-29T00:49:00;7.60;;;6.20;;
3022;SDS011;1521;53.584;9.938;2022-12-29T00:51:45;6.70;;;6.00;;
3022;SDS011;1521;53.584;9.938;2022-12-29T00:54:11;6.67;;;6.00;;
3022;SDS011;1521;53.584;9.938;2022-12-29T00:56:37;6.00;;;5.50;;
3022;SDS011;1521;53.584;9.938;2022-12-29T00:59:04;7.17;;;6.20;;
3022;SDS011;1521;53.584;9.938;2022-12-29T01:01:31;6.20;;;5.60;;
3022;SDS011;1521;53.584;9.938;2022-12-29T01:03:57;7.67;;;5.70;;
3022;SDS011;1521;53.584;9.938;2022-12-29T01:06:23;8.17;;;5.63;;
3022;SDS011;1521;53.584;9.938;2022-12-29T01:08:49;9.70;;;5.37;;
3022;SDS011;1521;53.584;9.938;2022-12-29T01:11:35;10.53;;;5.80;;
3022;SDS011;1521;53.584;9.938;2022-12-29T01:14:00;6.93;;;5.13;;
3022;SDS011;1521;53.584;9.938;2022-12-29T01:16:26;6.30;;;5.33;;
3022;SDS011;1521;53.584;9.938;2022-12-29T01:18:52;6.17;;;5.53;;
3022;SDS011;1521;53.584;9.938;2022-12-29T01:21:17;8.67;;;5.27;;
3022;SDS011;1521;53.584;9.938;2022-12-29T01:23:43;5.90;;;5.30;;
3022;SDS011;1521;53.584;9.938;2022-12-29T01:26:09;5.70;;;5.10;;
3022;SDS011;1521;53.584;9.938;2022-12-29T01:28:35;5.60;;;5.03;;
3022;SDS011;1521;53.584;9.938;2022-12-29T01:31:03;5.53;;;5.00;;
3022;SDS011;1521;53.584;9.938;2022-12-29T01:33:30;5.70;;;5.20;;
3022;SDS011;1521;53.584;9.938;2022-12-29T01:35:59;6.83;;;6.00;;
3022;SDS011;1521;53.584;9.938;2022-12-29T01:38:25;9.23;;;6.10;;
3022;SDS011;1521;53.584;9.938;2022-12-29T01:40:51;8.93;;;5.93;;
3022;SDS011;1521;53.584;9.938;2022-12-29T01:43:17;7.30;;;6.30;;
3022;SDS011;1521;53.584;9.938;2022-12-29T01:45:44;7.80;;;6.90;;
3022;SDS011;1521;53.584;9.938;2022-12-29T01:48:15;8.47;;;7.50;;
3022;SDS011;1521;53.584;9.938;2022-12-29T01:50:44;9.93;;;7.40;;
3022;SDS011;1521;53.584;9.938;2022-12-29T01:53:23;10.93;;;6.80;;
3022;SDS011;1521;53.584;9.938;2022-12-29T01:55:54;8.50;;;6.93;;
3022;SDS011;1521;53.584;9.938;2022-12-29T01:58:23;9.73;;;6.90;;
3022;SDS011;1521;53.584;9.938;2022-12-29T02:00:52;8.07;;;6.43;;
3022;SDS011;1521;53.584;9.938;2022-12-29T02:03:18;7.60;;;6.80;;
3022;SDS011;1521;53.584;9.938;2022-12-29T02:08:29;10.43;;;7.40;;
3022;SDS011;1521;53.584;9.938;2022-12-29T02:10:58;7.83;;;6.40;;
3022;SDS011;1521;53.584;9.938;2022-12-29T02:13:25;7.83;;;7.00;;
3022;SDS011;1521;53.584;9.938;2022-12-29T02:18:51;7.70;;;6.83;;
3022;SDS011;1521;53.584;9.938;2022-12-29T02:49:20;9.77;;;6.70;;
3022;SDS011;1521;53.584;9.938;2022-12-29T02:54:23;9.17;;;6.00;;
3022;SDS011;1521;53.584;9.938;2022-12-29T02:59:58;8.63;;;6.60;;
3022;SDS011;1521;53.584;9.938;2022-12-29T03:03:01;10.27;;;5.77;;
3022;SDS011;1521;53.584;9.938;2022-12-29T03:08:23;11.13;;;6.07;;
3022;SDS011;1521;53.584;9.938;2022-12-29T03:11:03;6.80;;;5.43;;
3022;SDS011;1521;53.584;9.938;2022-12-29T03:13:52;7.13;;;5.47;;
3022;SDS011;1521;53.584;9.938;2022-12-29T03:16:44;8.03;;;5.57;;
3022;SDS011;1521;53.584;9.938;2022-12-29T03:27:49;5.67;;;4.83;;
3022;SDS011;1521;53.584;9.938;2022-12-29T03:30:20;6.00;;;5.40;;
3022;SDS011;1521;53.584;9.938;2022-12-29T03:32:54;5.30;;;4.80;;
3022;SDS011;1521;53.584;9.938;2022-12-29T03:35:25;7.20;;;5.10;;
3022;SDS011;1521;53.584;9.938;2022-12-29T03:40:44;5.50;;;4.93;;
3022;SDS011;1521;53.584;9.938;2022-12-29T03:43:13;8.80;;;4.97;;
3022;SDS011;1521;53.584;9.938;2022-12-29T03:45:39;5.87;;;4.80;;
3022;SDS011;1521;53.584;9.938;2022-12-29T03:48:05;5.70;;;4.53;;
3022;SDS011;1521;53.584;9.938;2022-12-29T03:50:31;4.67;;;4.27;;
3022;SDS011;1521;53.584;9.938;2022-12-29T03:52:56;5.07;;;4.47;;
3022;SDS011;1521;53.584;9.938;2022-12-29T03:55:22;6.43;;;4.57;;
3022;SDS011;1521;53.584;9.938;2022-12-29T03:57:47;5.07;;;4.67;;
3022;SDS011;1521;53.584;9.938;2022-12-29T04:00:13;7.30;;;4.90;;
3022;SDS011;1521;53.584;9.938;2022-12-29T04:02:39;4.87;;;4.17;;
3022;SDS011;1521;53.584;9.938;2022-12-29T04:05:05;7.03;;;4.73;;
3022;SDS011;1521;53.584;9.938;2022-12-29T04:07:31;5.37;;;4.87;;
3022;SDS011;1521;53.584;9.938;2022-12-29T04:09:56;5.13;;;4.63;;
3022;SDS011;1521;53.584;9.938;2022-12-29T04:12:22;6.50;;;4.83;;
3022;SDS011;1521;53.584;9.938;2022-12-29T04:14:47;5.27;;;4.27;;
3022;SDS011;1521;53.584;9.938;2022-12-29T04:17:13;5.07;;;3.63;;
3022;SDS011;1521;53.584;9.938;2022-12-29T04:19:38;4.90;;;3.90;;
3022;SDS011;1521;53.584;9.938;2022-12-29T04:22:04;6.10;;;3.70;;
3022;SDS011;1521;53.584;9.938;2022-12-29T04:24:30;4.10;;;3.80;;
3022;SDS011;1521;53.584;9.938;2022-12-29T04:26:55;3.90;;;3.60;;
3022;SDS011;1521;53.584;9.938;2022-12-29T04:29:21;4.03;;;3.63;;
3022;SDS011;1521;53.584;9.938;2022-12-29T04:31:46;3.80;;;3.40;;
3022;SDS011;1521;53.584;9.938;2022-12-29T04:34:12;3.30;;;3.00;;
3022;SDS011;1521;53.584;9.938;2022-12-29T04:36:38;4.40;;;3.20;;
3022;SDS011;1521;53.584;9.938;2022-12-29T04:39:04;3.70;;;2.70;;
3022;SDS011;1521;53.584;9.938;2022-12-29T04:41:30;3.30;;;3.00;;
3022;SDS011;1521;53.584;9.938;2022-12-29T04:43:56;3.43;;;3.13;;
3022;SDS011;1521;53.584;9.938;2022-12-29T04:46:21;3.73;;;2.53;;
3022;SDS011;1521;53.584;9.938;2022-12-29T04:48:47;2.87;;;2.67;;
3022;SDS011;1521;53.584;9.938;2022-12-29T04:51:13;2.80;;;2.60;;
3022;SDS011;1521;53.584;9.938;2022-12-29T04:53:38;2.83;;;2.63;;
3022;SDS011;1521;53.584;9.938;2022-12-29T04:56:04;3.20;;;2.70;;
3022;SDS011;1521;53.584;9.938;2022-12-29T04:58:30;2.83;;;2.63;;
3022;SDS011;1521;53.584;9.938;2022-12-29T05:00:55;2.80;;;2.57;;
3022;SDS011;1521;53.584;9.938;2022-12-29T05:03:21;3.20;;;2.90;;
3022;SDS011;1521;53.584;9.938;2022-12-29T05:05:47;2.23;;;2.13;;
3022;SDS011;1521;53.584;9.938;2022-12-29T05:08:12;5.17;;;2.50;;
3022;SDS011;1521;53.584;9.938;2022-12-29T05:10:38;2.40;;;2.20;;
3022;SDS011;1521;53.584;9.938;2022-12-29T05:13:03;3.27;;;2.93;;
3022;SDS011;1521;53.584;9.938;2022-12-29T05:15:29;2.80;;;2.60;;
3022;SDS011;1521;53.584;9.938;2022-12-29T05:17:55;2.90;;;2.70;;
3022;SDS011;1521;53.584;9.938;2022-12-29T05:20:20;3.53;;;3.03;;
3022;SDS011;1521;53.584;9.938;2022-12-29T05:22:46;3.00;;;2.80;;
3022;SDS011;1521;53.584;9.938;2022-12-29T05:25:11;3.30;;;3.00;;
3022;SDS011;1521;53.584;9.938;2022-12-29T05:27:37;2.60;;;2.40;;
3022;SDS011;1521;53.584;9.938;2022-12-29T05:30:03;3.17;;;2.87;;
3022;SDS011;1521;53.584;9.938;2022-12-29T05:32:28;3.23;;;3.03;;
3022;SDS011;1521;53.584;9.938;2022-12-29T05:34:54;3.50;;;3.20;;
3022;SDS011;1521;53.584;9.938;2022-12-29T05:37:20;4.53;;;3.17;;
3022;SDS011;1521;53.584;9.938;2022-12-29T05:39:45;3.10;;;2.90;;
3022;SDS011;1521;53.584;9.938;2022-12-29T05:42:11;3.10;;;2.90;;
3022;SDS011;1521;53.584;9.938;2022-12-29T05:44:36;2.90;;;2.70;;
3022;SDS011;1521;53.584;9.938;2022-12-29T05:47:02;3.23;;;3.00;;
3022;SDS011;1521;53.584;9.938;2022-12-29T05:49:28;2.90;;;2.70;;
3022;SDS011;1521;53.584;9.938;2022-12-29T05:51:53;3.40;;;3.20;;
3022;SDS011;1521;53.584;9.938;2022-12-29T05:54:19;3.00;;;2.80;;
3022;SDS011;1521;53.584;9.938;2022-12-29T05:56:44;2.70;;;2.50;;
3022;SDS011;1521;53.584;9.938;2022-12-29T05:59:10;3.23;;;2.90;;
3022;SDS011;1521;53.584;9.938;2022-12-29T06:01:36;2.77;;;2.57;;
3022;SDS011;1521;53.584;9.938;2022-12-29T06:04:01;2.60;;;2.40;;
3022;SDS011;1521;53.584;9.938;2022-12-29T06:06:27;2.67;;;2.47;;
3022;SDS011;1521;53.584;9.938;2022-12-29T06:08:52;2.30;;;2.20;;
3022;SDS011;1521;53.584;9.938;2022-12-29T06:11:18;2.87;;;2.33;;
3022;SDS011;1521;53.584;9.938;2022-12-29T06:13:44;2.30;;;2.20;;
3022;SDS011;1521;53.584;9.938;2022-12-29T06:16:09;2.20;;;2.10;;
3022;SDS011;1521;53.584;9.938;2022-12-29T06:18:35;3.83;;;2.47;;
3022;SDS011;1521;53.584;9.938;2022-12-29T06:21:01;2.57;;;2.30;;
3022;SDS011;1521;53.584;9.938;2022-12-29T06:23:28;2.70;;;2.50;;
3022;SDS011;1521;53.584;9.938;2022-12-29T06:25:54;2.50;;;2.30;;
3022;SDS011;1521;53.584;9.938;2022-12-29T06:28:20;2.47;;;2.13;;
3022;SDS011;1521;53.584;9.938;2022-12-29T06:30:45;3.13;;;2.10;;
3022;SDS011;1521;53.584;9.938;2022-12-29T06:33:12;2.23;;;2.10;;
3022;SDS011;1521;53.584;9.938;2022-12-29T06:35:37;3.93;;;2.50;;
3022;SDS011;1521;53.584;9.938;2022-12-29T06:38:03;3.13;;;2.20;;
3022;SDS011;1521;53.584;9.938;2022-12-29T06:40:29;2.13;;;2.03;;
3022;SDS011;1521;53.584;9.938;2022-12-29T06:42:55;2.17;;;2.07;;
3022;SDS011;1521;53.584;9.938;2022-12-29T06:45:20;2.33;;;2.13;;
3022;SDS011;1521;53.584;9.938;2022-12-29T06:47:46;2.37;;;2.17;;
3022;SDS011;1521;53.584;9.938;2022-12-29T06:50:11;1.90;;;1.80;;
3022;SDS011;1521;53.584;9.938;2022-12-29T06:52:37;3.67;;;2.20;;
3022;SDS011;1521;53.584;9.938;2022-12-29T06:55:02;2.40;;;2.20;;
3022;SDS011;1521;53.584;9.938;2022-12-29T06:57:28;3.27;;;2.23;;
3022;SDS011;1521;53.584;9.938;2022-12-29T06:59:54;2.20;;;2.10;;
3022;SDS011;1521;53.584;9.938;2022-12-29T07:02:23;2.80;;;2.60;;
3022;SDS011;1521;53.584;9.938;2022-12-29T07:04:50;2.27;;;2.17;;
3022;SDS011;1521;53.584;9.938;2022-12-29T07:07:17;2.23;;;2.03;;
3022;SDS011;1521;53.584;9.938;2022-12-29T07:09:46;3.53;;;2.10;;
3022;SDS011;1521;53.584;9.938;2022-12-29T07:12:12;2.30;;;2.20;;
3022;SDS011;1521;53.584;9.938;2022-12-29T07:14:38;2.70;;;2.50;;
3022;SDS011;1521;53.584;9.938;2022-12-29T07:17:04;2.80;;;2.60;;
3022;SDS011;1521;53.584;9.938;2022-12-29T07:19:31;2.87;;;2.10;;
3022;SDS011;1521;53.584;9.938;2022-12-29T07:21:57;2.70;;;2.50;;
3022;SDS011;1521;53.584;9.938;2022-12-29T07:24:23;2.17;;;2.07;;
3022;SDS011;1521;53.584;9.938;2022-12-29T07:26:50;2.80;;;2.50;;
3022;SDS011;1521;53.584;9.938;2022-12-29T07:29:16;3.20;;;2.40;;
3022;SDS011;1521;53.584;9.938;2022-12-29T07:31:42;2.50;;;2.40;;
3022;SDS011;1521;53.584;9.938;2022-12-29T07:34:08;2.80;;;2.60;;
3022;SDS011;1521;53.584;9.938;2022-12-29T07:36:34;2.60;;;2.40;;
3022;SDS011;1521;53.584;9.938;2022-12-29T07:38:59;2.60;;;2.40;;
3022;SDS011;1521;53.584;9.938;2022-12-29T07:41:25;2.80;;;2.60;;
3022;SDS011;1521;53.584;9.938;2022-12-29T07:43:50;3.53;;;2.70;;
3022;SDS011;1521;53.584;9.938;2022-12-29T07:46:16;4.30;;;2.53;;
3022;SDS011;1521;53.584;9.938;2022-12-29T07:48:41;5.40;;;2.60;;
3022;SDS011;1521;53.584;9.938;2022-12-29T07:51:07;2.80;;;2.60;;
3022;SDS011;1521;53.584;9.938;2022-12-29T07:53:33;2.80;;;2.60;;
3022;SDS011;1521;53.584;9.938;2022-12-29T07:55:59;3.10;;;2.80;;
3022;SDS011;1521;53.584;9.938;2022-12-29T07:58:25;2.73;;;2.50;;
3022;SDS011;1521;53.584;9.938;2022-12-29T08:00:54;3.20;;;3.00;;
3022;SDS011;1521;53.584;9.938;2022-12-29T08:03:20;2.73;;;2.47;;
3022;SDS011;1521;53.584;9.938;2022-12-29T08:05:46;2.67;;;2.10;;
3022;SDS011;1521;53.584;9.938;2022-12-29T08:08:12;2.83;;;2.07;;
3022;SDS011;1521;53.584;9.938;2022-12-29T08:10:37;3.13;;;1.80;;
3022;SDS011;1521;53.584;9.938;2022-12-29T08:13:03;1.90;;;1.80;;
3022;SDS011;1521;53.584;9.938;2022-12-29T08:15:28;1.77;;;1.67;;
3022;SDS011;1521;53.584;9.938;2022-12-29T08:17:54;1.77;;;1.67;;
3022;SDS011;1521;53.584;9.938;2022-12-29T08:20:19;2.00;;;1.90;;
3022;SDS011;1521;53.584;9.938;2022-12-29T08:22:45;3.10;;;2.30;;
3022;SDS011;1521;53.584;9.938;2022-12-29T08:25:10;3.00;;;2.00;;
3022;SDS011;1521;53.584;9.938;2022-12-29T08:27:36;2.90;;;2.43;;
3022;SDS011;1521;53.584;9.938;2022-12-29T08:30:02;3.03;;;2.73;;
3022;SDS011;1521;53.584;9.938;2022-12-29T08:32:28;2.80;;;2.60;;
3022;SDS011;1521;53.584;9.938;2022-12-29T08:34:54;3.37;;;2.73;;
3022;SDS011;1521;53.584;9.938;2022-12-29T08:37:20;2.90;;;2.23;;
3022;SDS011;1521;53.584;9.938;2022-12-29T08:39:47;3.90;;;2.50;;
3022;SDS011;1521;53.584;9.938;2022-12-29T08:42:12;4.00;;;2.77;;
3022;SDS011;1521;53.584;9.938;2022-12-29T08:44:38;5.57;;;2.33;;
3022;SDS011;1521;53.584;9.938;2022-12-29T08:47:04;5.13;;;2.40;;
3022;SDS011;1521;53.584;9.938;2022-12-29T08:49:29;2.40;;;2.20;;
3022;SDS011;1521;53.584;9.938;2022-12-29T08:51:55;3.80;;;1.90;;
3022;SDS011;1521;53.584;9.938;2022-12-29T08:54:21;2.90;;;1.67;;
3022;SDS011;1521;53.584;9.938;2022-12-29T08:56:46;2.30;;;1.77;;
3022;SDS011;1521;53.584;9.938;2022-12-29T08:59:12;3.73;;;1.93;;
3022;SDS011;1521;53.584;9.938;2022-12-29T09:01:38;3.30;;;1.50;;
3022;SDS011;1521;53.584;9.938;2022-12-29T09:04:05;2.33;;;1.90;;
3022;SDS011;1521;53.584;9.938;2022-12-29T09:06:31;1.80;;;1.60;;
3022;SDS011;1521;53.584;9.938;2022-12-29T09:08:57;7.70;;;1.90;;
3022;SDS011;1521;53.584;9.938;2022-12-29T09:11:23;3.50;;;1.50;;
3022;SDS011;1521;53.584;9.938;2022-12-29T09:13:50;3.10;;;1.37;;
3022;SDS011;1521;53.584;9.938;2022-12-29T09:16:17;3.27;;;1.60;;
3022;SDS011;1521;53.584;9.938;2022-12-29T09:18:43;2.20;;;1.50;;
3022;SDS011;1521;53.584;9.938;2022-12-29T09:21:10;1.53;;;1.40;;
3022;SDS011;1521;53.584;9.938;2022-12-29T09:23:36;3.13;;;1.47;;
3022;SDS011;1521;53.584;9.938;2022-12-29T09:26:03;4.10;;;1.40;;
3022;SDS011;1521;53.584;9.938;2022-12-29T09:28:29;3.50;;;1.50;;
3022;SDS011;1521;53.584;9.938;2022-12-29T09:30:56;3.73;;;1.67;;
3022;SDS011;1521;53.584;9.938;2022-12-29T09:33:22;1.83;;;1.30;;
3022;SDS011;1521;53.584;9.938;2022-12-29T09:36:06;4.70;;;1.23;;
3022;SDS011;1521;53.584;9.938;2022-12-29T09:38:33;2.23;;;1.20;;
3022;SDS011;1521;53.584;9.938;2022-12-29T09:41:06;4.17;;;1.40;;
3022;SDS011;1521;53.584;9.938;2022-12-29T09:43:46;6.80;;;1.90;;
3022;SDS011;1521;53.584;9.938;2022-12-29T09:46:35;3.07;;;1.50;;
3022;SDS011;1521;53.584;9.938;2022-12-29T09:51:33;6.27;;;1.20;;
3022;SDS011;1521;53.584;9.938;2022-12-29T09:54:04;3.57;;;1.20;;
3022;SDS011;1521;53.584;9.938;2022-12-29T09:56:53;2.67;;;1.23;;
3022;SDS011;1521;53.584;9.938;2022-12-29T09:59:21;6.13;;;1.70;;
3022;SDS011;1521;53.584;9.938;2022-12-29T10:01:57;5.53;;;1.37;;
3022;SDS011;1521;53.584;9.938;2022-12-29T10:04:33;4.07;;;1.27;;
3022;SDS011;1521;53.584;9.938;2022-12-29T10:07:03;3.53;;;1.40;;
3022;SDS011;1521;53.584;9.938;2022-12-29T10:12:53;5.70;;;1.80;;
3022;SDS011;1521;53.584;9.938;2022-12-29T10:18:27;4.37;;;1.70;;
3022;SDS011;1521;53.584;9.938;2022-12-29T10:24:10;3.80;;;1.40;;
3022;SDS011;1521;53.584;9.938;2022-12-29T10:26:41;8.83;;;1.70;;
3022;SDS011;1521;53.584;9.938;2022-12-29T10:29:13;3.53;;;1.13;;
3022;SDS011;1521;53.584;9.938;2022-12-29T10:31:49;4.17;;;1.50;;
3022;SDS011;1521;53.584;9.938;2022-12-29T10:39:51;7.63;;;1.97;;
3022;SDS011;1521;53.584;9.938;2022-12-29T10:42:25;5.67;;;2.00;;
3022;SDS011;1521;53.584;9.938;2022-12-29T10:44:54;3.30;;;1.50;;
3022;SDS011;1521;53.584;9.938;2022-12-29T10:47:24;10.03;;;1.50;;
3022;SDS011;1521;53.584;9.938;2022-12-29T10:49:53;3.50;;;1.60;;
3022;SDS011;1521;53.584;9.938;2022-12-29T10:52:19;5.80;;;1.60;;
3022;SDS011;1521;53.584;9.938;2022-12-29T10:54:54;5.20;;;1.77;;
3022;SDS011;1521;53.584;9.938;2022-12-29T11:00:20;7.10;;;1.33;;
3022;SDS011;1521;53.584;9.938;2022-12-29T11:05:39;6.00;;;1.77;;
3022;SDS011;1521;53.584;9.938;2022-12-29T11:08:12;6.63;;;1.83;;
3022;SDS011;1521;53.584;9.938;2022-12-29T11:10:42;11.03;;;2.00;;
3022;SDS011;1521;53.584;9.938;2022-12-29T11:13:16;5.00;;;1.67;;
3022;SDS011;1521;53.584;9.938;2022-12-29T11:15:44;5.90;;;1.50;;
3022;SDS011;1521;53.584;9.938;2022-12-29T11:18:25;7.90;;;1.30;;
3022;SDS011;1521;53.584;9.938;2022-12-29T11:20:55;7.97;;;1.50;;
3022;SDS011;1521;53.584;9.938;2022-12-29T11:23:40;4.50;;;1.77;;
3022;SDS011;1521;53.584;9.938;2022-12-29T11:28:35;3.73;;;1.20;;
3022;SDS011;1521;53.584;9.938;2022-12-29T11:31:03;5.63;;;1.87;;
3022;SDS011;1521;53.584;9.938;2022-12-29T11:33:30;4.13;;;1.33;;
3022;SDS011;1521;53.584;9.938;2022-12-29T11:35:57;3.03;;;1.37;;
3022;SDS011;1521;53.584;9.938;2022-12-29T11:38:28;3.43;;;1.33;;
3022;SDS011;1521;53.584;9.938;2022-12-29T11:41:03;2.80;;;1.20;;
3022;SDS011;1521;53.584;9.938;2022-12-29T11:43:31;4.53;;;1.30;;
3022;SDS011;1521;53.584;9.938;2022-12-29T11:45:59;1.93;;;1.00;;
3022;SDS011;1521;53.584;9.938;2022-12-29T11:48:29;3.90;;;1.60;;
3022;SDS011;1521;53.584;9.938;2022-12-29T11:51:06;3.30;;;1.30;;
3022;SDS011;1521;53.584;9.938;2022-12-29T11:53:37;4.17;;;1.83;;
3022;SDS011;1521;53.584;9.938;2022-12-29T11:56:14;5.00;;;1.10;;
3022;SDS011;1521;53.584;9.938;2022-12-29T11:58:41;2.93;;;1.17;;
3022;SDS011;1521;53.584;9.938;2022-12-29T12:01:18;2.97;;;1.00;;
3022;SDS011;1521;53.584;9.938;2022-12-29T12:04:02;3.47;;;1.30;;
3022;SDS011;1521;53.584;9.938;2022-12-29T12:06:32;3.73;;;1.17;;
3022;SDS011;1521;53.584;9.938;2022-12-29T12:09:04;4.30;;;1.20;;
3022;SDS011;1521;53.584;9.938;2022-12-29T12:11:37;7.07;;;1.20;;
3022;SDS011;1521;53.584;9.938;2022-12-29T12:14:28;5.00;;;1.37;;
3022;SDS011;1521;53.584;9.938;2022-12-29T12:16:57;7.70;;;1.07;;
3022;SDS011;1521;53.584;9.938;2022-12-29T12:19:32;4.57;;;1.43;;
3022;SDS011;1521;53.584;9.938;2022-12-29T12:27:26;7.37;;;1.47;;
3022;SDS011;1521;53.584;9.938;2022-12-29T12:30:02;9.93;;;1.73;;
3022;SDS011;1521;53.584;9.938;2022-12-29T12:40:40;5.93;;;1.47;;
3022;SDS011;1521;53.584;9.938;2022-12-29T12:43:40;4.30;;;1.47;;
3022;SDS011;1521;53.584;9.938;2022-12-29T12:46:32;7.60;;;2.00;;
3022;SDS011;1521;53.584;9.938;2022-12-29T12:58:01;4.33;;;1.27;;
3022;SDS011;1521;53.584;9.938;2022-12-29T13:09:18;3.93;;;1.50;;
3022;SDS011;1521;53.584;9.938;2022-12-29T13:22:44;6.83;;;1.50;;
3022;SDS011;1521;53.584;9.938;2022-12-29T13:25:39;5.87;;;1.80;;
3022;SDS011;1521;53.584;9.938;2022-12-29T13:33:40;8.00;;;2.00;;
3022;SDS011;1521;53.584;9.938;2022-12-29T13:36:27;4.33;;;1.47;;
3022;SDS011;1521;53.584;9.938;2022-12-29T13:41:51;2.60;;;1.63;;
3022;SDS011;1521;53.584;9.938;2022-12-29T13:44:20;4.70;;;1.70;;
3022;SDS011;1521;53.584;9.938;2022-12-29T13:46:53;6.03;;;1.40;;
3022;SDS011;1521;53.584;9.938;2022-12-29T13:49:22;7.03;;;1.83;;
3022;SDS011;1521;53.584;9.938;2022-12-29T13:51:55;8.63;;;1.73;;
3022;SDS011;1521;53.584;9.938;2022-12-29T13:54:39;9.43;;;2.13;;
3022;SDS011;1521;53.584;9.938;2022-12-29T13:59:59;9.83;;;2.10;;
3022;SDS011;1521;53.584;9.938;2022-12-29T14:07:48;4.03;;;1.30;;
3022;SDS011;1521;53.584;9.938;2022-12-29T14:10:34;5.23;;;1.20;;
3022;SDS011;1521;53.584;9.938;2022-12-29T14:13:12;5.57;;;1.17;;
3022;SDS011;1521;53.584;9.938;2022-12-29T14:15:41;8.00;;;1.50;;
3022;SDS011;1521;53.584;9.938;2022-12-29T14:18:21;5.03;;;1.20;;
3022;SDS011;1521;53.584;9.938;2022-12-29T14:21:00;5.43;;;1.33;;
3022;SDS011;1521;53.584;9.938;2022-12-29T14:23:41;6.77;;;1.80;;
3022;SDS011;1521;53.584;9.938;2022-12-29T14:26:32;7.27;;;1.50;;
3022;SDS011;1521;53.584;9.938;2022-12-29T14:29:15;8.27;;;1.90;;
3022;SDS011;1521;53.584;9.938;2022-12-29T14:31:50;4.37;;;1.40;;
3022;SDS011;1521;53.584;9.938;2022-12-29T14:34:25;5.90;;;2.10;;
3022;SDS011;1521;53.584;9.938;2022-12-29T14:39:31;4.70;;;1.30;;
3022;SDS011;1521;53.584;9.938;2022-12-29T14:44:50;4.27;;;1.60;;
3022;SDS011;1521;53.584;9.938;2022-12-29T14:50:03;7.13;;;1.90;;
3022;SDS011;1521;53.584;9.938;2022-12-29T14:52:29;6.27;;;1.60;;
3022;SDS011;1521;53.584;9.938;2022-12-29T14:54:59;6.47;;;1.80;;
3022;SDS011;1521;53.584;9.938;2022-12-29T14:58:12;4.40;;;1.73;;
3022;SDS011;1521;53.584;9.938;2022-12-29T15:00:53;3.90;;;1.60;;
3022;SDS011;1521;53.584;9.938;2022-12-29T15:03:29;9.07;;;1.80;;
3022;SDS011;1521;53.584;9.938;2022-12-29T15:08:32;6.40;;;1.67;;
3022;SDS011;1521;53.584;9.938;2022-12-29T15:13:35;4.80;;;1.57;;
3022;SDS011;1521;53.584;9.938;2022-12-29T15:16:03;4.50;;;1.70;;
3022;SDS011;1521;53.584;9.938;2022-12-29T15:18:30;8.60;;;1.90;;
3022;SDS011;1521;53.584;9.938;2022-12-29T15:20:58;6.13;;;1.90;;
3022;SDS011;1521;53.584;9.938;2022-12-29T15:23:27;8.40;;;2.03;;
3022;SDS011;1521;53.584;9.938;2022-12-29T15:25:56;7.87;;;2.17;;
3022;SDS011;1521;53.584;9.938;2022-12-29T15:28:25;13.00;;;2.83;;
3022;SDS011;1521;53.584;9.938;2022-12-29T15:31:05;9.90;;;2.37;;
3022;SDS011;1521;53.584;9.938;2022-12-29T15:33:37;6.03;;;2.30;;
3022;SDS011;1521;53.584;9.938;2022-12-29T15:36:05;4.33;;;2.13;;
3022;SDS011;1521;53.584;9.938;2022-12-29T15:38:47;8.43;;;2.10;;
3022;SDS011;1521;53.584;9.938;2022-12-29T15:41:48;2.90;;;1.70;;
3022;SDS011;1521;53.584;9.938;2022-12-29T15:44:38;5.87;;;2.30;;
3022;SDS011;1521;53.584;9.938;2022-12-29T15:47:09;5.20;;;2.03;;
3022;SDS011;1521;53.584;9.938;2022-12-29T15:49:41;7.70;;;2.33;;
3022;SDS011;1521;53.584;9.938;2022-12-29T15:52:08;5.43;;;2.23;;
3022;SDS011;1521;53.584;9.938;2022-12-29T15:54:34;3.60;;;2.27;;
3022;SDS011;1521;53.584;9.938;2022-12-29T15:57:01;13.10;;;2.97;;
3022;SDS011;1521;53.584;9.938;2022-12-29T15:59:29;12.33;;;2.83;;
3022;SDS011;1521;53.584;9.938;2022-12-29T16:01:57;10.43;;;3.23;;
3022;SDS011;1521;53.584;9.938;2022-12-29T16:04:28;3.93;;;2.13;;
3022;SDS011;1521;53.584;9.938;2022-12-29T16:06:59;7.60;;;2.37;;
3022;SDS011;1521;53.584;9.938;2022-12-29T16:09:30;6.70;;;2.23;;
3022;SDS011;1521;53.584;9.938;2022-12-29T16:11:58;9.63;;;2.50;;
3022;SDS011;1521;53.584;9.938;2022-12-29T16:14:29;12.63;;;2.50;;
3022;SDS011;1521;53.584;9.938;2022-12-29T16:16:57;9.97;;;3.00;;
3022;SDS011;1521;53.584;9.938;2022-12-29T16:19:27;7.53;;;2.53;;
3022;SDS011;1521;53.584;9.938;2022-12-29T16:21:58;10.60;;;3.20;;
3022;SDS011;1521;53.584;9.938;2022-12-29T16:24:26;7.93;;;2.47;;
3022;SDS011;1521;53.584;9.938;2022-12-29T16:29:26;9.53;;;2.70;;
3022;SDS011;1521;53.584;9.938;2022-12-29T16:31:55;8.00;;;3.17;;
3022;SDS011;1521;53.584;9.938;2022-12-29T16:36:56;7.73;;;2.80;;
3022;SDS011;1521;53.584;9.938;2022-12-29T16:39:24;7.87;;;2.33;;
3022;SDS011;1521;53.584;9.938;2022-12-29T16:41:54;3.87;;;2.40;;
3022;SDS011;1521;53.584;9.938;2022-12-29T16:44:21;11.03;;;2.10;;
3022;SDS011;1521;53.584;9.938;2022-12-29T16:47:03;12.43;;;3.13;;
3022;SDS011;1521;53.584;9.938;2022-12-29T16:49:42;9.60;;;2.70;;
3022;SDS011;1521;53.584;9.938;2022-12-29T16:52:25;10.50;;;2.87;;
3022;SDS011;1521;53.584;9.938;2022-12-29T16:54:59;13.70;;;3.43;;
3022;SDS011;1521;53.584;9.938;2022-12-29T16:57:28;10.57;;;3.00;;
3022;SDS011;1521;53.584;9.938;2022-12-29T16:59:59;10.77;;;2.90;;
3022;SDS011;1521;53.584;9.938;2022-12-29T17:02:29;9.30;;;3.03;;
3022;SDS011;1521;53.584;9.938;2022-12-29T17:04:57;9.60;;;2.60;;
3022;SDS011;1521;53.584;9.938;2022-12-29T17:07:24;6.30;;;2.80;;
3022;SDS011;1521;53.584;9.938;2022-12-29T17:09:51;8.00;;;3.07;;
3022;SDS011;1521;53.584;9.938;2022-12-29T17:12:25;8.83;;;3.37;;
3022;SDS011;1521;53.584;9.938;2022-12-29T17:14:53;8.57;;;2.87;;
3022;SDS011;1521;53.584;9.938;2022-12-29T17:20:00;16.30;;;4.00;;
3022;SDS011;1521;53.584;9.938;2022-12-29T17:22:31;14.60;;;3.87;;
3022;SDS011;1521;53.584;9.938;2022-12-29T17:24:58;13.13;;;3.53;;
3022;SDS011;1521;53.584;9.938;2022-12-29T17:27:36;10.70;;;3.20;;
3022;SDS011;1521;53.584;9.938;2022-12-29T17:30:13;10.50;;;3.13;;
3022;SDS011;1521;53.584;9.938;2022-12-29T17:32:40;7.03;;;2.87;;
3022;SDS011;1521;53.584;9.938;2022-12-29T17:35:15;15.37;;;3.67;;
3022;SDS011;1521;53.584;9.938;2022-12-29T17:37:41;8.60;;;3.20;;
3022;SDS011;1521;53.584;9.938;2022-12-29T17:40:12;12.40;;;3.60;;
3022;SDS011;1521;53.584;9.938;2022-12-29T17:42:49;7.13;;;3.00;;
3022;SDS011;1521;53.584;9.938;2022-12-29T17:45:21;6.27;;;2.83;;
3022;SDS011;1521;53.584;9.938;2022-12-29T17:47:49;6.20;;;2.80;;
3022;SDS011;1521;53.584;9.938;2022-12-29T17:50:16;7.93;;;3.00;;
3022;SDS011;1521;53.584;9.938;2022-12-29T17:52:45;7.67;;;3.37;;
3022;SDS011;1521;53.584;9.938;2022-12-29T17:55:18;11.03;;;3.23;;
3022;SDS011;1521;53.584;9.938;2022-12-29T17:57:46;10.17;;;3.57;;
3022;SDS011;1521;53.584;9.938;2022-12-29T18:00:22;8.07;;;3.30;;
3022;SDS011;1521;53.584;9.938;2022-12-29T18:02:56;8.90;;;2.90;;
3022;SDS011;1521;53.584;9.938;2022-12-29T18:05:23;10.07;;;3.00;;
3022;SDS011;1521;53.584;9.938;2022-12-29T18:07:50;10.97;;;4.70;;
3022;SDS011;1521;53.584;9.938;2022-12-29T18:10:17;10.37;;;3.90;;
3022;SDS011;1521;53.584;9.938;2022-12-29T18:12:44;8.80;;;3.50;;